sensor_id;sensor_type;location;lat;lon;timestamp;temperature;humidity
56478;DHT22;42382;53.210;5.772;2023-04-24T00:02:04;11.50;89.50
56478;DHT22;42382;53.210;5.772;2023-04-24T00:04:32;11.50;89.50
56478;DHT22;42382;53.210;5.772;2023-04-24T00:06:57;11.50;89.50
56478;DHT22;42382;53.210;5.772;2023-04-24T00:09:25;11.50;89.50
56478;DHT22;42382;53.210;5.772;2023-04-24T00:11:51;11.50;89.60
56478;DHT22;42382;53.210;5.772;2023-04-24T00:14:17;11.50;89.60
56478;DHT22;42382;53.210;5.772;2023-04-24T00:16:43;11.50;89.60
56478;DHT22;42382;53.210;5.772;2023-04-24T00:19:08;11.50;89.60
56478;DHT22;42382;53.210;5.772;2023-04-24T00:21:34;11.60;89.60
56478;DHT22;42382;53.210;5.772;2023-04-24T00:24:00;11.60;89.60
56478;DHT22;42382;53.210;5.772;2023-04-24T00:26:26;11.60;89.60
56478;DHT22;42382;53.210;5.772;2023-04-24T00:28:51;11.60;89.60
56478;DHT22;42382;53.210;5.772;2023-04-24T00:31:17;11.60;89.60
56478;DHT22;42382;53.210;5.772;2023-04-24T00:33:43;11.60;89.60
56478;DHT22;42382;53.210;5.772;2023-04-24T00:36:08;11.60;89.60
56478;DHT22;42382;53.210;5.772;2023-04-24T00:38:35;11.60;89.60
56478;DHT22;42382;53.210;5.772;2023-04-24T00:41:00;11.60;89.60
56478;DHT22;42382;53.210;5.772;2023-04-24T00:43:26;11.60;89.60
56478;DHT22;42382;53.210;5.772;2023-04-24T00:45:52;11.60;89.70
56478;DHT22;42382;53.210;5.772;2023-04-24T00:48:18;11.60;89.60
56478;DHT22;42382;53.210;5.772;2023-04-24T00:50:44;11.60;89.60
56478;DHT22;42382;53.210;5.772;2023-04-24T00:53:10;11.60;89.70
56478;DHT22;42382;53.210;5.772;2023-04-24T00:55:36;11.60;89.70
56478;DHT22;42382;53.210;5.772;2023-04-24T00:58:02;11.60;89.60
56478;DHT22;42382;53.210;5.772;2023-04-24T01:00:28;11.60;89.70
56478;DHT22;42382;53.210;5.772;2023-04-24T01:02:55;11.60;89.60
56478;DHT22;42382;53.210;5.772;2023-04-24T01:05:21;11.50;89.80
56478;DHT22;42382;53.210;5.772;2023-04-24T01:07:46;11.50;89.70
56478;DHT22;42382;53.210;5.772;2023-04-24T01:10:15;11.50;89.70
56478;DHT22;42382;53.210;5.772;2023-04-24T01:12:41;11.60;89.80
56478;DHT22;42382;53.210;5.772;2023-04-24T01:15:07;11.50;89.80
56478;DHT22;42382;53.210;5.772;2023-04-24T01:17:33;11.60;89.90
56478;DHT22;42382;53.210;5.772;2023-04-24T01:20:00;11.60;89.90
56478;DHT22;42382;53.210;5.772;2023-04-24T01:22:26;11.60;89.90
56478;DHT22;42382;53.210;5.772;2023-04-24T01:24:53;11.60;89.90
56478;DHT22;42382;53.210;5.772;2023-04-24T01:27:19;11.60;89.90
56478;DHT22;42382;53.210;5.772;2023-04-24T01:29:45;11.60;89.90
56478;DHT22;42382;53.210;5.772;2023-04-24T01:32:13;11.60;89.90
56478;DHT22;42382;53.210;5.772;2023-04-24T01:34:39;11.60;89.90
56478;DHT22;42382;53.210;5.772;2023-04-24T01:37:05;11.60;89.90
56478;DHT22;42382;53.210;5.772;2023-04-24T01:39:31;11.60;89.90
56478;DHT22;42382;53.210;5.772;2023-04-24T01:41:57;11.60;89.90
56478;DHT22;42382;53.210;5.772;2023-04-24T01:44:23;11.70;89.90
56478;DHT22;42382;53.210;5.772;2023-04-24T01:46:48;11.70;89.90
56478;DHT22;42382;53.210;5.772;2023-04-24T01:49:14;11.70;90.00
56478;DHT22;42382;53.210;5.772;2023-04-24T01:51:40;11.70;90.00
56478;DHT22;42382;53.210;5.772;2023-04-24T01:54:05;11.70;90.00
56478;DHT22;42382;53.210;5.772;2023-04-24T01:56:33;11.70;90.00
56478;DHT22;42382;53.210;5.772;2023-04-24T01:59:00;11.80;90.00
56478;DHT22;42382;53.210;5.772;2023-04-24T02:01:31;11.70;90.00
56478;DHT22;42382;53.210;5.772;2023-04-24T02:03:58;11.70;90.00
56478;DHT22;42382;53.210;5.772;2023-04-24T02:06:23;11.70;90.00
56478;DHT22;42382;53.210;5.772;2023-04-24T02:08:49;11.70;89.90
56478;DHT22;42382;53.210;5.772;2023-04-24T02:11:14;11.70;89.90
56478;DHT22;42382;53.210;5.772;2023-04-24T02:13:40;11.70;89.90
56478;DHT22;42382;53.210;5.772;2023-04-24T02:16:06;11.60;90.00
56478;DHT22;42382;53.210;5.772;2023-04-24T02:18:31;11.60;89.90
56478;DHT22;42382;53.210;5.772;2023-04-24T02:20:57;11.60;89.90
56478;DHT22;42382;53.210;5.772;2023-04-24T02:23:22;11.40;90.00
56478;DHT22;42382;53.210;5.772;2023-04-24T02:25:48;11.40;90.00
56478;DHT22;42382;53.210;5.772;2023-04-24T02:28:14;11.30;90.10
56478;DHT22;42382;53.210;5.772;2023-04-24T02:30:39;11.20;90.10
56478;DHT22;42382;53.210;5.772;2023-04-24T02:33:05;11.10;90.20
56478;DHT22;42382;53.210;5.772;2023-04-24T02:35:34;11.10;90.20
56478;DHT22;42382;53.210;5.772;2023-04-24T02:37:59;11.00;90.10
56478;DHT22;42382;53.210;5.772;2023-04-24T02:40:25;11.00;90.20
56478;DHT22;42382;53.210;5.772;2023-04-24T02:42:51;10.90;90.30
56478;DHT22;42382;53.210;5.772;2023-04-24T02:45:16;10.90;90.30
56478;DHT22;42382;53.210;5.772;2023-04-24T02:47:42;10.90;90.40
56478;DHT22;42382;53.210;5.772;2023-04-24T02:50:08;10.90;90.40
56478;DHT22;42382;53.210;5.772;2023-04-24T02:52:33;10.80;90.40
56478;DHT22;42382;53.210;5.772;2023-04-24T02:54:59;10.80;90.50
56478;DHT22;42382;53.210;5.772;2023-04-24T02:57:25;10.80;90.50
56478;DHT22;42382;53.210;5.772;2023-04-24T02:59:50;10.80;90.50
56478;DHT22;42382;53.210;5.772;2023-04-24T03:02:16;10.80;90.50
56478;DHT22;42382;53.210;5.772;2023-04-24T03:04:41;10.70;90.60
56478;DHT22;42382;53.210;5.772;2023-04-24T03:07:09;10.70;90.60
56478;DHT22;42382;53.210;5.772;2023-04-24T03:09:35;10.70;90.80
56478;DHT22;42382;53.210;5.772;2023-04-24T03:12:00;10.70;90.60
56478;DHT22;42382;53.210;5.772;2023-04-24T03:14:26;10.70;90.60
56478;DHT22;42382;53.210;5.772;2023-04-24T03:16:52;10.70;90.70
56478;DHT22;42382;53.210;5.772;2023-04-24T03:19:17;10.70;90.80
56478;DHT22;42382;53.210;5.772;2023-04-24T03:21:43;10.70;90.80
56478;DHT22;42382;53.210;5.772;2023-04-24T03:24:09;10.70;91.00
56478;DHT22;42382;53.210;5.772;2023-04-24T03:26:35;10.60;91.00
56478;DHT22;42382;53.210;5.772;2023-04-24T03:29:01;10.60;91.00
56478;DHT22;42382;53.210;5.772;2023-04-24T03:31:26;10.60;91.10
56478;DHT22;42382;53.210;5.772;2023-04-24T03:33:52;10.60;91.30
56478;DHT22;42382;53.210;5.772;2023-04-24T03:36:17;10.60;91.40
56478;DHT22;42382;53.210;5.772;2023-04-24T03:38:44;10.60;91.40
56478;DHT22;42382;53.210;5.772;2023-04-24T03:41:10;10.50;91.40
56478;DHT22;42382;53.210;5.772;2023-04-24T03:43:37;10.50;91.40
56478;DHT22;42382;53.210;5.772;2023-04-24T03:46:03;10.50;91.40
56478;DHT22;42382;53.210;5.772;2023-04-24T03:48:32;10.40;91.30
56478;DHT22;42382;53.210;5.772;2023-04-24T03:50:57;10.40;91.40
56478;DHT22;42382;53.210;5.772;2023-04-24T03:53:23;10.40;91.50
56478;DHT22;42382;53.210;5.772;2023-04-24T03:55:49;10.40;91.40
56478;DHT22;42382;53.210;5.772;2023-04-24T03:58:14;10.40;91.50
56478;DHT22;42382;53.210;5.772;2023-04-24T04:00:40;10.40;91.30
56478;DHT22;42382;53.210;5.772;2023-04-24T04:03:06;10.40;91.30
56478;DHT22;42382;53.210;5.772;2023-04-24T04:05:31;10.40;91.30
56478;DHT22;42382;53.210;5.772;2023-04-24T04:07:57;10.40;91.30
56478;DHT22;42382;53.210;5.772;2023-04-24T04:10:23;10.40;91.30
56478;DHT22;42382;53.210;5.772;2023-04-24T04:12:48;10.40;91.30
56478;DHT22;42382;53.210;5.772;2023-04-24T04:15:14;10.30;91.20
56478;DHT22;42382;53.210;5.772;2023-04-24T04:17:40;10.30;91.20
56478;DHT22;42382;53.210;5.772;2023-04-24T04:20:06;10.40;91.20
56478;DHT22;42382;53.210;5.772;2023-04-24T04:22:35;10.30;91.20
56478;DHT22;42382;53.210;5.772;2023-04-24T04:25:01;10.30;91.20
56478;DHT22;42382;53.210;5.772;2023-04-24T04:27:26;10.20;91.30
56478;DHT22;42382;53.210;5.772;2023-04-24T04:29:53;10.20;91.40
56478;DHT22;42382;53.210;5.772;2023-04-24T04:32:19;10.30;91.30
56478;DHT22;42382;53.210;5.772;2023-04-24T04:34:44;10.20;91.40
56478;DHT22;42382;53.210;5.772;2023-04-24T04:37:14;10.20;91.40
56478;DHT22;42382;53.210;5.772;2023-04-24T04:39:40;10.10;91.40
56478;DHT22;42382;53.210;5.772;2023-04-24T04:42:06;10.20;91.20
56478;DHT22;42382;53.210;5.772;2023-04-24T04:44:32;10.10;91.50
56478;DHT22;42382;53.210;5.772;2023-04-24T04:46:58;10.10;91.40
56478;DHT22;42382;53.210;5.772;2023-04-24T04:49:24;10.10;91.50
56478;DHT22;42382;53.210;5.772;2023-04-24T04:51:50;10.10;91.50
56478;DHT22;42382;53.210;5.772;2023-04-24T04:54:16;10.10;91.50
56478;DHT22;42382;53.210;5.772;2023-04-24T04:56:42;10.10;91.50
56478;DHT22;42382;53.210;5.772;2023-04-24T04:59:07;10.10;91.50
56478;DHT22;42382;53.210;5.772;2023-04-24T05:01:33;10.10;91.50
56478;DHT22;42382;53.210;5.772;2023-04-24T05:03:58;10.10;91.40
56478;DHT22;42382;53.210;5.772;2023-04-24T05:06:24;10.10;91.50
56478;DHT22;42382;53.210;5.772;2023-04-24T05:08:50;10.10;91.30
56478;DHT22;42382;53.210;5.772;2023-04-24T05:11:16;10.10;91.30
56478;DHT22;42382;53.210;5.772;2023-04-24T05:13:42;10.10;91.30
56478;DHT22;42382;53.210;5.772;2023-04-24T05:16:07;10.10;91.30
56478;DHT22;42382;53.210;5.772;2023-04-24T05:18:33;10.10;91.10
56478;DHT22;42382;53.210;5.772;2023-04-24T05:20:59;10.00;91.10
56478;DHT22;42382;53.210;5.772;2023-04-24T05:23:25;10.10;91.20
56478;DHT22;42382;53.210;5.772;2023-04-24T05:25:50;10.10;91.00
56478;DHT22;42382;53.210;5.772;2023-04-24T05:28:16;10.10;91.00
56478;DHT22;42382;53.210;5.772;2023-04-24T05:30:41;10.10;91.10
56478;DHT22;42382;53.210;5.772;2023-04-24T05:33:07;10.00;91.10
56478;DHT22;42382;53.210;5.772;2023-04-24T05:35:34;10.10;91.10
56478;DHT22;42382;53.210;5.772;2023-04-24T05:38:00;10.10;91.10
56478;DHT22;42382;53.210;5.772;2023-04-24T05:40:25;10.10;91.00
56478;DHT22;42382;53.210;5.772;2023-04-24T05:42:51;10.00;90.90
56478;DHT22;42382;53.210;5.772;2023-04-24T05:45:16;10.10;90.90
56478;DHT22;42382;53.210;5.772;2023-04-24T05:47:43;10.00;90.90
56478;DHT22;42382;53.210;5.772;2023-04-24T05:50:10;10.00;90.90
56478;DHT22;42382;53.210;5.772;2023-04-24T05:52:35;10.00;90.90
56478;DHT22;42382;53.210;5.772;2023-04-24T05:55:01;10.10;90.90
56478;DHT22;42382;53.210;5.772;2023-04-24T05:57:27;10.00;90.90
56478;DHT22;42382;53.210;5.772;2023-04-24T05:59:52;10.00;90.80
56478;DHT22;42382;53.210;5.772;2023-04-24T06:02:18;10.00;90.90
56478;DHT22;42382;53.210;5.772;2023-04-24T06:04:44;10.00;90.70
56478;DHT22;42382;53.210;5.772;2023-04-24T06:07:11;9.90;90.60
56478;DHT22;42382;53.210;5.772;2023-04-24T06:09:36;9.90;90.60
56478;DHT22;42382;53.210;5.772;2023-04-24T06:12:02;9.90;90.60
56478;DHT22;42382;53.210;5.772;2023-04-24T06:14:28;9.80;90.60
56478;DHT22;42382;53.210;5.772;2023-04-24T06:16:53;9.80;90.70
56478;DHT22;42382;53.210;5.772;2023-04-24T06:19:19;9.80;90.70
56478;DHT22;42382;53.210;5.772;2023-04-24T06:21:45;9.80;90.80
56478;DHT22;42382;53.210;5.772;2023-04-24T06:24:10;9.80;90.80
56478;DHT22;42382;53.210;5.772;2023-04-24T06:26:36;9.80;90.80
56478;DHT22;42382;53.210;5.772;2023-04-24T06:29:02;9.80;90.80
56478;DHT22;42382;53.210;5.772;2023-04-24T06:31:27;9.80;90.70
56478;DHT22;42382;53.210;5.772;2023-04-24T06:33:53;9.80;90.70
56478;DHT22;42382;53.210;5.772;2023-04-24T06:36:19;9.80;90.60
56478;DHT22;42382;53.210;5.772;2023-04-24T06:38:45;9.70;90.60
56478;DHT22;42382;53.210;5.772;2023-04-24T06:41:10;9.60;90.60
56478;DHT22;42382;53.210;5.772;2023-04-24T06:43:39;9.60;90.50
56478;DHT22;42382;53.210;5.772;2023-04-24T06:46:04;9.60;90.50
56478;DHT22;42382;53.210;5.772;2023-04-24T06:48:30;9.60;90.50
56478;DHT22;42382;53.210;5.772;2023-04-24T06:50:55;9.50;90.40
56478;DHT22;42382;53.210;5.772;2023-04-24T06:53:21;9.50;90.30
56478;DHT22;42382;53.210;5.772;2023-04-24T06:55:47;9.50;90.30
56478;DHT22;42382;53.210;5.772;2023-04-24T06:58:12;9.50;90.30
56478;DHT22;42382;53.210;5.772;2023-04-24T07:00:38;9.50;90.30
56478;DHT22;42382;53.210;5.772;2023-04-24T07:03:04;9.50;90.20
56478;DHT22;42382;53.210;5.772;2023-04-24T07:05:32;9.50;90.20
56478;DHT22;42382;53.210;5.772;2023-04-24T07:08:01;9.50;90.20
56478;DHT22;42382;53.210;5.772;2023-04-24T07:10:27;9.50;90.00
56478;DHT22;42382;53.210;5.772;2023-04-24T07:12:54;9.50;89.60
56478;DHT22;42382;53.210;5.772;2023-04-24T07:15:21;9.50;89.60
56478;DHT22;42382;53.210;5.772;2023-04-24T07:17:46;9.40;89.50
56478;DHT22;42382;53.210;5.772;2023-04-24T07:20:12;9.40;89.50
56478;DHT22;42382;53.210;5.772;2023-04-24T07:22:39;9.50;89.50
56478;DHT22;42382;53.210;5.772;2023-04-24T07:25:06;9.40;89.40
56478;DHT22;42382;53.210;5.772;2023-04-24T07:27:33;9.40;89.20
56478;DHT22;42382;53.210;5.772;2023-04-24T07:29:59;9.40;89.10
56478;DHT22;42382;53.210;5.772;2023-04-24T07:32:25;9.40;89.10
56478;DHT22;42382;53.210;5.772;2023-04-24T07:34:50;9.40;88.80
56478;DHT22;42382;53.210;5.772;2023-04-24T07:37:16;9.40;88.70
56478;DHT22;42382;53.210;5.772;2023-04-24T07:39:42;9.40;88.00
56478;DHT22;42382;53.210;5.772;2023-04-24T07:42:07;9.40;88.50
56478;DHT22;42382;53.210;5.772;2023-04-24T07:44:33;9.40;88.00
56478;DHT22;42382;53.210;5.772;2023-04-24T07:46:59;9.40;88.20
56478;DHT22;42382;53.210;5.772;2023-04-24T07:49:25;9.40;88.10
56478;DHT22;42382;53.210;5.772;2023-04-24T07:51:50;9.50;88.20
56478;DHT22;42382;53.210;5.772;2023-04-24T07:54:16;9.50;87.90
56478;DHT22;42382;53.210;5.772;2023-04-24T07:56:43;9.50;87.70
56478;DHT22;42382;53.210;5.772;2023-04-24T07:59:09;9.50;87.90
56478;DHT22;42382;53.210;5.772;2023-04-24T08:01:35;9.60;87.60
56478;DHT22;42382;53.210;5.772;2023-04-24T08:04:01;9.60;87.60
56478;DHT22;42382;53.210;5.772;2023-04-24T08:06:27;9.70;87.60
56478;DHT22;42382;53.210;5.772;2023-04-24T08:08:56;9.70;87.70
56478;DHT22;42382;53.210;5.772;2023-04-24T08:11:22;9.70;87.10
56478;DHT22;42382;53.210;5.772;2023-04-24T08:13:47;9.80;86.90
56478;DHT22;42382;53.210;5.772;2023-04-24T08:16:13;9.80;86.90
56478;DHT22;42382;53.210;5.772;2023-04-24T08:18:39;9.80;86.90
56478;DHT22;42382;53.210;5.772;2023-04-24T08:21:05;9.80;86.70
56478;DHT22;42382;53.210;5.772;2023-04-24T08:23:30;9.70;86.30
56478;DHT22;42382;53.210;5.772;2023-04-24T08:25:56;9.70;86.30
56478;DHT22;42382;53.210;5.772;2023-04-24T08:28:22;9.70;86.70
56478;DHT22;42382;53.210;5.772;2023-04-24T08:30:48;9.80;87.00
56478;DHT22;42382;53.210;5.772;2023-04-24T08:33:14;9.80;86.90
56478;DHT22;42382;53.210;5.772;2023-04-24T08:35:40;9.90;87.10
56478;DHT22;42382;53.210;5.772;2023-04-24T08:38:06;10.10;86.70
56478;DHT22;42382;53.210;5.772;2023-04-24T08:40:34;10.10;86.10
56478;DHT22;42382;53.210;5.772;2023-04-24T08:43:00;10.20;86.00
56478;DHT22;42382;53.210;5.772;2023-04-24T08:45:26;10.30;85.70
56478;DHT22;42382;53.210;5.772;2023-04-24T08:47:53;10.30;85.10
56478;DHT22;42382;53.210;5.772;2023-04-24T08:50:21;10.40;84.30
56478;DHT22;42382;53.210;5.772;2023-04-24T08:52:49;10.50;84.20
56478;DHT22;42382;53.210;5.772;2023-04-24T08:55:15;10.50;83.10
56478;DHT22;42382;53.210;5.772;2023-04-24T08:57:45;10.60;81.70
56478;DHT22;42382;53.210;5.772;2023-04-24T09:00:11;10.80;80.80
56478;DHT22;42382;53.210;5.772;2023-04-24T09:02:41;10.90;81.80
56478;DHT22;42382;53.210;5.772;2023-04-24T09:05:07;11.10;81.80
56478;DHT22;42382;53.210;5.772;2023-04-24T09:07:35;11.10;80.80
56478;DHT22;42382;53.210;5.772;2023-04-24T09:10:02;11.30;81.00
56478;DHT22;42382;53.210;5.772;2023-04-24T09:12:28;11.50;80.30
56478;DHT22;42382;53.210;5.772;2023-04-24T09:14:54;11.80;80.50
56478;DHT22;42382;53.210;5.772;2023-04-24T09:17:20;12.00;79.10
56478;DHT22;42382;53.210;5.772;2023-04-24T09:19:50;11.90;77.50
56478;DHT22;42382;53.210;5.772;2023-04-24T09:22:15;11.90;78.30
56478;DHT22;42382;53.210;5.772;2023-04-24T09:24:41;11.80;78.10
56478;DHT22;42382;53.210;5.772;2023-04-24T09:27:07;11.60;77.90
56478;DHT22;42382;53.210;5.772;2023-04-24T09:29:33;11.50;77.90
56478;DHT22;42382;53.210;5.772;2023-04-24T09:32:01;11.50;77.80
56478;DHT22;42382;53.210;5.772;2023-04-24T09:34:43;11.40;78.00
56478;DHT22;42382;53.210;5.772;2023-04-24T09:37:09;11.40;77.80
56478;DHT22;42382;53.210;5.772;2023-04-24T09:39:34;11.40;77.00
56478;DHT22;42382;53.210;5.772;2023-04-24T09:42:01;11.30;77.80
56478;DHT22;42382;53.210;5.772;2023-04-24T09:44:28;11.30;76.50
56478;DHT22;42382;53.210;5.772;2023-04-24T09:46:58;11.30;77.50
56478;DHT22;42382;53.210;5.772;2023-04-24T09:49:28;11.30;77.00
56478;DHT22;42382;53.210;5.772;2023-04-24T09:52:09;11.30;77.50
56478;DHT22;42382;53.210;5.772;2023-04-24T09:54:35;11.30;77.90
56478;DHT22;42382;53.210;5.772;2023-04-24T09:57:05;11.20;78.30
56478;DHT22;42382;53.210;5.772;2023-04-24T09:59:32;11.10;77.80
56478;DHT22;42382;53.210;5.772;2023-04-24T10:02:01;11.10;77.60
56478;DHT22;42382;53.210;5.772;2023-04-24T10:04:28;11.10;77.00
56478;DHT22;42382;53.210;5.772;2023-04-24T10:06:56;11.00;77.50
56478;DHT22;42382;53.210;5.772;2023-04-24T10:09:23;11.00;76.80
56478;DHT22;42382;53.210;5.772;2023-04-24T10:11:51;11.10;77.00
56478;DHT22;42382;53.210;5.772;2023-04-24T10:14:20;11.10;76.00
56478;DHT22;42382;53.210;5.772;2023-04-24T10:16:50;11.00;75.20
56478;DHT22;42382;53.210;5.772;2023-04-24T10:19:16;11.10;76.10
56478;DHT22;42382;53.210;5.772;2023-04-24T10:21:44;11.10;76.70
56478;DHT22;42382;53.210;5.772;2023-04-24T10:24:17;11.20;76.50
56478;DHT22;42382;53.210;5.772;2023-04-24T10:26:44;11.30;77.00
56478;DHT22;42382;53.210;5.772;2023-04-24T10:29:12;11.40;76.30
56478;DHT22;42382;53.210;5.772;2023-04-24T10:31:38;11.40;76.90
56478;DHT22;42382;53.210;5.772;2023-04-24T10:34:05;11.50;76.90
56478;DHT22;42382;53.210;5.772;2023-04-24T10:36:33;11.60;76.90
56478;DHT22;42382;53.210;5.772;2023-04-24T10:39:06;11.60;75.90
56478;DHT22;42382;53.210;5.772;2023-04-24T10:41:33;11.60;75.50
56478;DHT22;42382;53.210;5.772;2023-04-24T10:44:09;11.50;75.40
56478;DHT22;42382;53.210;5.772;2023-04-24T10:46:38;11.40;75.10
56478;DHT22;42382;53.210;5.772;2023-04-24T10:49:07;11.30;74.00
56478;DHT22;42382;53.210;5.772;2023-04-24T10:54:25;11.00;76.70
56478;DHT22;42382;53.210;5.772;2023-04-24T10:56:52;10.80;76.60
56478;DHT22;42382;53.210;5.772;2023-04-24T10:59:25;10.70;77.20
56478;DHT22;42382;53.210;5.772;2023-04-24T11:01:54;10.60;76.90
56478;DHT22;42382;53.210;5.772;2023-04-24T11:04:31;10.60;76.70
56478;DHT22;42382;53.210;5.772;2023-04-24T11:06:57;10.50;76.20
56478;DHT22;42382;53.210;5.772;2023-04-24T11:09:35;10.40;75.80
56478;DHT22;42382;53.210;5.772;2023-04-24T11:12:06;10.40;76.00
56478;DHT22;42382;53.210;5.772;2023-04-24T11:14:59;10.50;76.10
56478;DHT22;42382;53.210;5.772;2023-04-24T11:17:33;10.50;75.00
56478;DHT22;42382;53.210;5.772;2023-04-24T11:20:15;10.60;75.80
56478;DHT22;42382;53.210;5.772;2023-04-24T11:22:42;10.70;76.10
56478;DHT22;42382;53.210;5.772;2023-04-24T11:25:08;10.80;75.60
56478;DHT22;42382;53.210;5.772;2023-04-24T11:27:42;11.00;74.80
56478;DHT22;42382;53.210;5.772;2023-04-24T11:30:09;11.10;74.60
56478;DHT22;42382;53.210;5.772;2023-04-24T11:32:40;11.10;74.40
56478;DHT22;42382;53.210;5.772;2023-04-24T11:37:39;11.00;75.00
56478;DHT22;42382;53.210;5.772;2023-04-24T11:40:07;10.90;75.80
56478;DHT22;42382;53.210;5.772;2023-04-24T11:42:41;10.90;76.30
56478;DHT22;42382;53.210;5.772;2023-04-24T11:45:13;10.90;77.00
56478;DHT22;42382;53.210;5.772;2023-04-24T11:47:40;10.90;76.70
56478;DHT22;42382;53.210;5.772;2023-04-24T11:50:09;10.90;75.80
56478;DHT22;42382;53.210;5.772;2023-04-24T11:52:39;11.00;76.00
56478;DHT22;42382;53.210;5.772;2023-04-24T11:55:25;11.20;75.70
56478;DHT22;42382;53.210;5.772;2023-04-24T11:57:56;11.40;73.80
56478;DHT22;42382;53.210;5.772;2023-04-24T12:00:27;11.80;74.60
56478;DHT22;42382;53.210;5.772;2023-04-24T12:03:05;12.20;73.40
56478;DHT22;42382;53.210;5.772;2023-04-24T12:05:31;12.40;72.00
56478;DHT22;42382;53.210;5.772;2023-04-24T12:07:57;12.30;71.50
56478;DHT22;42382;53.210;5.772;2023-04-24T12:10:24;12.30;71.80
56478;DHT22;42382;53.210;5.772;2023-04-24T12:12:56;12.30;72.30
56478;DHT22;42382;53.210;5.772;2023-04-24T12:15:22;12.30;70.90
56478;DHT22;42382;53.210;5.772;2023-04-24T12:17:50;12.40;71.40
56478;DHT22;42382;53.210;5.772;2023-04-24T12:20:16;12.50;70.80
56478;DHT22;42382;53.210;5.772;2023-04-24T12:22:46;12.50;69.10
56478;DHT22;42382;53.210;5.772;2023-04-24T12:25:14;12.50;69.70
56478;DHT22;42382;53.210;5.772;2023-04-24T12:27:40;12.50;69.30
56478;DHT22;42382;53.210;5.772;2023-04-24T12:30:11;12.40;69.00
56478;DHT22;42382;53.210;5.772;2023-04-24T12:32:41;12.50;70.60
56478;DHT22;42382;53.210;5.772;2023-04-24T12:35:08;12.60;70.60
56478;DHT22;42382;53.210;5.772;2023-04-24T12:37:34;12.70;70.20
56478;DHT22;42382;53.210;5.772;2023-04-24T12:40:06;12.60;68.00
56478;DHT22;42382;53.210;5.772;2023-04-24T12:42:33;12.50;68.60
56478;DHT22;42382;53.210;5.772;2023-04-24T12:45:02;12.40;69.40
56478;DHT22;42382;53.210;5.772;2023-04-24T12:47:29;12.40;69.90
56478;DHT22;42382;53.210;5.772;2023-04-24T12:49:55;12.40;69.90
56478;DHT22;42382;53.210;5.772;2023-04-24T12:52:25;12.30;69.60
56478;DHT22;42382;53.210;5.772;2023-04-24T12:54:58;12.30;69.10
56478;DHT22;42382;53.210;5.772;2023-04-24T12:57:26;12.20;69.60
56478;DHT22;42382;53.210;5.772;2023-04-24T12:59:56;12.10;69.90
56478;DHT22;42382;53.210;5.772;2023-04-24T13:02:27;12.00;70.60
56478;DHT22;42382;53.210;5.772;2023-04-24T13:04:54;11.90;71.40
56478;DHT22;42382;53.210;5.772;2023-04-24T13:07:20;11.80;71.00
56478;DHT22;42382;53.210;5.772;2023-04-24T13:09:48;11.60;72.40
56478;DHT22;42382;53.210;5.772;2023-04-24T13:12:14;11.30;72.40
56478;DHT22;42382;53.210;5.772;2023-04-24T13:14:40;11.10;73.50
56478;DHT22;42382;53.210;5.772;2023-04-24T13:17:06;10.90;74.40
56478;DHT22;42382;53.210;5.772;2023-04-24T13:19:40;10.80;75.70
56478;DHT22;42382;53.210;5.772;2023-04-24T13:22:08;10.70;76.30
56478;DHT22;42382;53.210;5.772;2023-04-24T13:24:34;10.70;76.50
56478;DHT22;42382;53.210;5.772;2023-04-24T13:27:00;10.70;76.60
56478;DHT22;42382;53.210;5.772;2023-04-24T13:29:26;10.70;76.90
56478;DHT22;42382;53.210;5.772;2023-04-24T13:31:53;10.60;77.70
56478;DHT22;42382;53.210;5.772;2023-04-24T13:34:21;10.60;77.80
56478;DHT22;42382;53.210;5.772;2023-04-24T13:36:46;10.60;77.70
56478;DHT22;42382;53.210;5.772;2023-04-24T13:39:12;10.60;77.10
56478;DHT22;42382;53.210;5.772;2023-04-24T13:41:38;10.70;76.90
56478;DHT22;42382;53.210;5.772;2023-04-24T13:44:04;10.80;77.20
56478;DHT22;42382;53.210;5.772;2023-04-24T13:46:30;10.80;76.30
56478;DHT22;42382;53.210;5.772;2023-04-24T13:48:56;10.80;75.80
56478;DHT22;42382;53.210;5.772;2023-04-24T13:51:23;10.80;76.60
56478;DHT22;42382;53.210;5.772;2023-04-24T13:53:48;10.80;77.20
56478;DHT22;42382;53.210;5.772;2023-04-24T13:56:14;10.80;77.60
56478;DHT22;42382;53.210;5.772;2023-04-24T13:58:40;10.80;77.60
56478;DHT22;42382;53.210;5.772;2023-04-24T14:01:05;10.80;77.00
56478;DHT22;42382;53.210;5.772;2023-04-24T14:03:33;10.90;77.30
56478;DHT22;42382;53.210;5.772;2023-04-24T14:05:58;10.90;76.40
56478;DHT22;42382;53.210;5.772;2023-04-24T14:08:24;10.70;76.40
56478;DHT22;42382;53.210;5.772;2023-04-24T14:10:50;10.60;76.90
56478;DHT22;42382;53.210;5.772;2023-04-24T14:13:16;10.50;77.70
56478;DHT22;42382;53.210;5.772;2023-04-24T14:15:42;10.50;78.20
56478;DHT22;42382;53.210;5.772;2023-04-24T14:18:08;10.50;78.10
56478;DHT22;42382;53.210;5.772;2023-04-24T14:20:34;10.50;78.10
56478;DHT22;42382;53.210;5.772;2023-04-24T14:22:59;10.50;78.10
56478;DHT22;42382;53.210;5.772;2023-04-24T14:25:25;10.50;78.20
56478;DHT22;42382;53.210;5.772;2023-04-24T14:27:51;10.50;78.30
56478;DHT22;42382;53.210;5.772;2023-04-24T14:30:17;10.40;78.10
56478;DHT22;42382;53.210;5.772;2023-04-24T14:32:43;10.40;78.10
56478;DHT22;42382;53.210;5.772;2023-04-24T14:35:09;10.30;78.80
56478;DHT22;42382;53.210;5.772;2023-04-24T14:37:35;10.30;79.40
56478;DHT22;42382;53.210;5.772;2023-04-24T14:40:01;10.20;79.60
56478;DHT22;42382;53.210;5.772;2023-04-24T14:42:27;10.20;79.70
56478;DHT22;42382;53.210;5.772;2023-04-24T14:44:54;10.20;79.10
56478;DHT22;42382;53.210;5.772;2023-04-24T14:47:20;10.10;79.30
56478;DHT22;42382;53.210;5.772;2023-04-24T14:49:49;10.20;79.40
56478;DHT22;42382;53.210;5.772;2023-04-24T14:52:14;10.20;79.90
56478;DHT22;42382;53.210;5.772;2023-04-24T14:54:41;10.10;80.50
56478;DHT22;42382;53.210;5.772;2023-04-24T14:57:07;10.00;81.50
56478;DHT22;42382;53.210;5.772;2023-04-24T14:59:32;10.10;82.00
56478;DHT22;42382;53.210;5.772;2023-04-24T15:01:58;10.10;81.70
56478;DHT22;42382;53.210;5.772;2023-04-24T15:04:24;10.10;81.10
56478;DHT22;42382;53.210;5.772;2023-04-24T15:06:52;10.10;80.80
56478;DHT22;42382;53.210;5.772;2023-04-24T15:09:22;10.10;81.50
56478;DHT22;42382;53.210;5.772;2023-04-24T15:11:48;10.00;82.00
56478;DHT22;42382;53.210;5.772;2023-04-24T15:14:14;9.90;82.80
56478;DHT22;42382;53.210;5.772;2023-04-24T15:16:40;9.90;82.90
56478;DHT22;42382;53.210;5.772;2023-04-24T15:19:05;9.80;83.70
56478;DHT22;42382;53.210;5.772;2023-04-24T15:21:31;9.80;84.10
56478;DHT22;42382;53.210;5.772;2023-04-24T15:23:57;9.80;84.50
56478;DHT22;42382;53.210;5.772;2023-04-24T15:26:23;9.80;84.00
56478;DHT22;42382;53.210;5.772;2023-04-24T15:28:49;9.80;84.10
56478;DHT22;42382;53.210;5.772;2023-04-24T15:31:15;9.70;84.00
56478;DHT22;42382;53.210;5.772;2023-04-24T15:33:40;9.70;84.60
56478;DHT22;42382;53.210;5.772;2023-04-24T15:36:06;9.70;85.20
56478;DHT22;42382;53.210;5.772;2023-04-24T15:38:31;9.60;85.20